sensor_id;sensor_type;location;lat;lon;timestamp;P1;durP1;ratioP1;P2;durP2;ratioP2
19566;SDS011;9930;49.240;8.548;2023-02-28T00:01:24;2.17;;;1.93;;
19566;SDS011;9930;49.240;8.548;2023-02-28T00:03:53;2.43;;;2.00;;
19566;SDS011;9930;49.240;8.548;2023-02-28T00:06:21;1.87;;;1.77;;
19566;SDS011;9930;49.240;8.548;2023-02-28T00:08:47;2.00;;;1.80;;
19566;SDS011;9930;49.240;8.548;2023-02-28T00:11:16;1.90;;;1.70;;
19566;SDS011;9930;49.240;8.548;2023-02-28T00:13:47;2.07;;;1.87;;
19566;SDS011;9930;49.240;8.548;2023-02-28T00:16:19;2.00;;;1.77;;
19566;SDS011;9930;49.240;8.548;2023-02-28T00:18:47;2.90;;;2.00;;
19566;SDS011;9930;49.240;8.548;2023-02-28T00:21:14;2.30;;;2.10;;
19566;SDS011;9930;49.240;8.548;2023-02-28T00:23:41;2.87;;;1.90;;
19566;SDS011;9930;49.240;8.548;2023-02-28T00:26:09;2.00;;;1.80;;
19566;SDS011;9930;49.240;8.548;2023-02-28T00:28:35;2.23;;;1.67;;
19566;SDS011;9930;49.240;8.548;2023-02-28T00:31:01;2.50;;;2.30;;
19566;SDS011;9930;49.240;8.548;2023-02-28T00:33:27;2.37;;;2.17;;
19566;SDS011;9930;49.240;8.548;2023-02-28T00:36:02;3.03;;;2.20;;
19566;SDS011;9930;49.240;8.548;2023-02-28T00:38:31;2.90;;;2.53;;
19566;SDS011;9930;49.240;8.548;2023-02-28T00:40:59;3.27;;;2.80;;
19566;SDS011;9930;49.240;8.548;2023-02-28T00:43:33;2.37;;;2.17;;
19566;SDS011;9930;49.240;8.548;2023-02-28T00:46:01;2.57;;;2.37;;
19566;SDS011;9930;49.240;8.548;2023-02-28T00:48:30;2.53;;;2.10;;
19566;SDS011;9930;49.240;8.548;2023-02-28T00:50:56;2.10;;;1.90;;
19566;SDS011;9930;49.240;8.548;2023-02-28T00:53:22;2.37;;;2.17;;
19566;SDS011;9930;49.240;8.548;2023-02-28T00:55:51;2.53;;;2.30;;
19566;SDS011;9930;49.240;8.548;2023-02-28T00:58:19;2.90;;;2.20;;
19566;SDS011;9930;49.240;8.548;2023-02-28T01:00:44;2.40;;;1.97;;
19566;SDS011;9930;49.240;8.548;2023-02-28T01:03:16;1.93;;;1.73;;
19566;SDS011;9930;49.240;8.548;2023-02-28T01:05:47;2.30;;;2.10;;
19566;SDS011;9930;49.240;8.548;2023-02-28T01:08:13;1.83;;;1.70;;
19566;SDS011;9930;49.240;8.548;2023-02-28T01:10:42;1.90;;;1.80;;
19566;SDS011;9930;49.240;8.548;2023-02-28T01:13:07;1.83;;;1.73;;
19566;SDS011;9930;49.240;8.548;2023-02-28T01:15:35;1.93;;;1.70;;
19566;SDS011;9930;49.240;8.548;2023-02-28T01:18:02;1.73;;;1.60;;
19566;SDS011;9930;49.240;8.548;2023-02-28T01:20:31;2.20;;;2.00;;
19566;SDS011;9930;49.240;8.548;2023-02-28T01:23:00;1.83;;;1.70;;
19566;SDS011;9930;49.240;8.548;2023-02-28T01:25:34;2.83;;;1.83;;
19566;SDS011;9930;49.240;8.548;2023-02-28T01:28:00;2.00;;;1.90;;
19566;SDS011;9930;49.240;8.548;2023-02-28T01:30:28;1.90;;;1.80;;
19566;SDS011;9930;49.240;8.548;2023-02-28T01:32:55;2.00;;;1.80;;
19566;SDS011;9930;49.240;8.548;2023-02-28T01:35:21;2.03;;;1.83;;
19566;SDS011;9930;49.240;8.548;2023-02-28T01:37:47;2.77;;;2.03;;
19566;SDS011;9930;49.240;8.548;2023-02-28T01:40:12;2.30;;;2.10;;
19566;SDS011;9930;49.240;8.548;2023-02-28T01:42:39;2.20;;;2.00;;
19566;SDS011;9930;49.240;8.548;2023-02-28T01:45:22;2.07;;;1.87;;
19566;SDS011;9930;49.240;8.548;2023-02-28T01:48:02;2.17;;;1.97;;
19566;SDS011;9930;49.240;8.548;2023-02-28T01:50:36;2.37;;;1.90;;
19566;SDS011;9930;49.240;8.548;2023-02-28T01:53:10;2.40;;;2.20;;
19566;SDS011;9930;49.240;8.548;2023-02-28T01:55:45;2.23;;;1.77;;
19566;SDS011;9930;49.240;8.548;2023-02-28T01:58:16;2.10;;;1.90;;
19566;SDS011;9930;49.240;8.548;2023-02-28T02:00:42;2.43;;;2.23;;
19566;SDS011;9930;49.240;8.548;2023-02-28T02:03:09;1.97;;;1.83;;
19566;SDS011;9930;49.240;8.548;2023-02-28T02:05:40;2.57;;;2.27;;
19566;SDS011;9930;49.240;8.548;2023-02-28T02:08:07;2.20;;;2.00;;
19566;SDS011;9930;49.240;8.548;2023-02-28T02:10:42;2.30;;;2.10;;
19566;SDS011;9930;49.240;8.548;2023-02-28T02:25:22;1.90;;;1.77;;
19566;SDS011;9930;49.240;8.548;2023-02-28T02:41:52;2.97;;;2.67;;
19566;SDS011;9930;49.240;8.548;2023-02-28T02:44:37;2.43;;;2.23;;
19566;SDS011;9930;49.240;8.548;2023-02-28T02:47:15;3.13;;;2.20;;
19566;SDS011;9930;49.240;8.548;2023-02-28T02:49:50;2.50;;;2.30;;
19566;SDS011;9930;49.240;8.548;2023-02-28T02:52:22;2.83;;;2.43;;
19566;SDS011;9930;49.240;8.548;2023-02-28T02:54:57;2.80;;;2.60;;
19566;SDS011;9930;49.240;8.548;2023-02-28T03:00:37;2.37;;;2.17;;
19566;SDS011;9930;49.240;8.548;2023-02-28T03:03:12;2.57;;;2.27;;
19566;SDS011;9930;49.240;8.548;2023-02-28T03:05:45;2.57;;;2.37;;
19566;SDS011;9930;49.240;8.548;2023-02-28T03:08:15;2.93;;;2.67;;
19566;SDS011;9930;49.240;8.548;2023-02-28T03:10:43;2.70;;;2.50;;
19566;SDS011;9930;49.240;8.548;2023-02-28T03:16:07;3.07;;;2.37;;
19566;SDS011;9930;49.240;8.548;2023-02-28T03:31:30;2.43;;;2.23;;
19566;SDS011;9930;49.240;8.548;2023-02-28T03:36:37;3.53;;;2.47;;
19566;SDS011;9930;49.240;8.548;2023-02-28T03:39:13;2.93;;;2.60;;
19566;SDS011;9930;49.240;8.548;2023-02-28T03:41:49;2.63;;;2.30;;
19566;SDS011;9930;49.240;8.548;2023-02-28T03:44:34;2.60;;;2.40;;
19566;SDS011;9930;49.240;8.548;2023-02-28T03:47:11;2.23;;;2.07;;
19566;SDS011;9930;49.240;8.548;2023-02-28T03:52:22;3.17;;;2.80;;
19566;SDS011;9930;49.240;8.548;2023-02-28T03:55:02;2.97;;;2.67;;
19566;SDS011;9930;49.240;8.548;2023-02-28T03:57:38;3.43;;;2.50;;
19566;SDS011;9930;49.240;8.548;2023-02-28T04:00:31;2.80;;;2.47;;
19566;SDS011;9930;49.240;8.548;2023-02-28T04:03:07;2.60;;;2.40;;
19566;SDS011;9930;49.240;8.548;2023-02-28T04:05:33;2.90;;;2.60;;
19566;SDS011;9930;49.240;8.548;2023-02-28T04:08:16;2.73;;;2.50;;
19566;SDS011;9930;49.240;8.548;2023-02-28T04:10:45;3.10;;;2.67;;
19566;SDS011;9930;49.240;8.548;2023-02-28T04:13:21;3.70;;;3.00;;
19566;SDS011;9930;49.240;8.548;2023-02-28T04:15:47;3.83;;;2.93;;
19566;SDS011;9930;49.240;8.548;2023-02-28T04:18:13;2.90;;;2.63;;
19566;SDS011;9930;49.240;8.548;2023-02-28T04:20:38;3.10;;;2.70;;
19566;SDS011;9930;49.240;8.548;2023-02-28T04:23:06;3.13;;;2.83;;
19566;SDS011;9930;49.240;8.548;2023-02-28T04:25:34;3.10;;;2.80;;
19566;SDS011;9930;49.240;8.548;2023-02-28T04:28:02;3.10;;;2.50;;
19566;SDS011;9930;49.240;8.548;2023-02-28T04:30:29;3.03;;;2.73;;
19566;SDS011;9930;49.240;8.548;2023-02-28T04:32:57;3.40;;;3.10;;
19566;SDS011;9930;49.240;8.548;2023-02-28T04:35:28;3.20;;;2.83;;
19566;SDS011;9930;49.240;8.548;2023-02-28T04:37:56;3.33;;;3.03;;
19566;SDS011;9930;49.240;8.548;2023-02-28T04:40:24;3.80;;;3.07;;
19566;SDS011;9930;49.240;8.548;2023-02-28T04:42:50;3.10;;;2.80;;
19566;SDS011;9930;49.240;8.548;2023-02-28T04:45:16;3.13;;;2.83;;
19566;SDS011;9930;49.240;8.548;2023-02-28T04:47:42;3.33;;;2.90;;
19566;SDS011;9930;49.240;8.548;2023-02-28T04:50:08;3.37;;;3.07;;
19566;SDS011;9930;49.240;8.548;2023-02-28T04:52:34;3.43;;;3.13;;
19566;SDS011;9930;49.240;8.548;2023-02-28T04:55:00;3.40;;;3.07;;
19566;SDS011;9930;49.240;8.548;2023-02-28T04:57:28;3.40;;;3.10;;
19566;SDS011;9930;49.240;8.548;2023-02-28T04:59:55;3.40;;;3.10;;
19566;SDS011;9930;49.240;8.548;2023-02-28T05:02:24;3.10;;;2.80;;
19566;SDS011;9930;49.240;8.548;2023-02-28T05:04:50;3.20;;;2.90;;
19566;SDS011;9930;49.240;8.548;2023-02-28T05:07:17;3.10;;;2.80;;
19566;SDS011;9930;49.240;8.548;2023-02-28T05:09:45;3.07;;;2.77;;
19566;SDS011;9930;49.240;8.548;2023-02-28T05:12:11;3.23;;;2.93;;
19566;SDS011;9930;49.240;8.548;2023-02-28T05:14:37;3.27;;;2.97;;
19566;SDS011;9930;49.240;8.548;2023-02-28T05:17:04;3.90;;;3.50;;
19566;SDS011;9930;49.240;8.548;2023-02-28T05:19:32;3.57;;;3.27;;
19566;SDS011;9930;49.240;8.548;2023-02-28T05:21:59;4.00;;;3.60;;
19566;SDS011;9930;49.240;8.548;2023-02-28T05:24:26;3.50;;;3.20;;
19566;SDS011;9930;49.240;8.548;2023-02-28T05:26:52;4.13;;;3.27;;
19566;SDS011;9930;49.240;8.548;2023-02-28T05:29:19;3.27;;;2.97;;
19566;SDS011;9930;49.240;8.548;2023-02-28T05:31:50;3.63;;;3.33;;
19566;SDS011;9930;49.240;8.548;2023-02-28T05:34:16;3.40;;;3.10;;
19566;SDS011;9930;49.240;8.548;2023-02-28T05:36:42;3.60;;;3.30;;
19566;SDS011;9930;49.240;8.548;2023-02-28T05:39:10;3.30;;;3.00;;
19566;SDS011;9930;49.240;8.548;2023-02-28T05:41:41;3.67;;;3.37;;
19566;SDS011;9930;49.240;8.548;2023-02-28T05:44:12;3.97;;;3.40;;
19566;SDS011;9930;49.240;8.548;2023-02-28T05:46:40;3.67;;;3.37;;
19566;SDS011;9930;49.240;8.548;2023-02-28T05:49:06;3.50;;;3.20;;
19566;SDS011;9930;49.240;8.548;2023-02-28T05:51:31;3.93;;;3.53;;
19566;SDS011;9930;49.240;8.548;2023-02-28T05:53:59;3.60;;;3.30;;
19566;SDS011;9930;49.240;8.548;2023-02-28T05:56:33;3.27;;;2.97;;
19566;SDS011;9930;49.240;8.548;2023-02-28T05:59:03;3.63;;;3.33;;
19566;SDS011;9930;49.240;8.548;2023-02-28T06:01:33;3.43;;;3.13;;
19566;SDS011;9930;49.240;8.548;2023-02-28T06:04:13;4.00;;;3.63;;
19566;SDS011;9930;49.240;8.548;2023-02-28T06:06:47;3.50;;;3.20;;
19566;SDS011;9930;49.240;8.548;2023-02-28T06:09:16;4.03;;;3.63;;
19566;SDS011;9930;49.240;8.548;2023-02-28T06:11:45;4.43;;;3.97;;
19566;SDS011;9930;49.240;8.548;2023-02-28T06:14:16;3.73;;;3.43;;
19566;SDS011;9930;49.240;8.548;2023-02-28T06:16:43;3.70;;;3.40;;
19566;SDS011;9930;49.240;8.548;2023-02-28T06:19:09;4.00;;;3.60;;
19566;SDS011;9930;49.240;8.548;2023-02-28T06:21:40;3.77;;;3.47;;
19566;SDS011;9930;49.240;8.548;2023-02-28T06:24:06;4.10;;;3.70;;
19566;SDS011;9930;49.240;8.548;2023-02-28T06:26:33;3.93;;;3.43;;
19566;SDS011;9930;49.240;8.548;2023-02-28T06:29:00;3.90;;;3.47;;
19566;SDS011;9930;49.240;8.548;2023-02-28T06:31:26;3.60;;;3.30;;
19566;SDS011;9930;49.240;8.548;2023-02-28T06:33:55;3.47;;;3.10;;
19566;SDS011;9930;49.240;8.548;2023-02-28T06:36:21;4.07;;;3.67;;
19566;SDS011;9930;49.240;8.548;2023-02-28T06:38:47;4.27;;;3.87;;
19566;SDS011;9930;49.240;8.548;2023-02-28T06:41:26;3.93;;;3.63;;
19566;SDS011;9930;49.240;8.548;2023-02-28T06:44:05;4.63;;;3.97;;
19566;SDS011;9930;49.240;8.548;2023-02-28T06:46:45;4.20;;;3.80;;
19566;SDS011;9930;49.240;8.548;2023-02-28T06:49:12;4.03;;;3.63;;
19566;SDS011;9930;49.240;8.548;2023-02-28T06:51:38;3.77;;;3.40;;
19566;SDS011;9930;49.240;8.548;2023-02-28T06:54:08;3.70;;;3.40;;
19566;SDS011;9930;49.240;8.548;2023-02-28T06:56:36;4.60;;;4.03;;
19566;SDS011;9930;49.240;8.548;2023-02-28T06:59:02;4.10;;;3.70;;
19566;SDS011;9930;49.240;8.548;2023-02-28T07:01:31;3.70;;;3.40;;
19566;SDS011;9930;49.240;8.548;2023-02-28T07:04:00;3.77;;;3.47;;
19566;SDS011;9930;49.240;8.548;2023-02-28T07:06:30;3.90;;;3.50;;
19566;SDS011;9930;49.240;8.548;2023-02-28T07:09:03;4.30;;;3.90;;
19566;SDS011;9930;49.240;8.548;2023-02-28T07:11:31;4.07;;;3.67;;
19566;SDS011;9930;49.240;8.548;2023-02-28T07:13:59;4.17;;;3.77;;
19566;SDS011;9930;49.240;8.548;2023-02-28T07:16:26;4.73;;;4.27;;
19566;SDS011;9930;49.240;8.548;2023-02-28T07:18:52;4.27;;;3.87;;
19566;SDS011;9930;49.240;8.548;2023-02-28T07:21:19;4.50;;;3.97;;
19566;SDS011;9930;49.240;8.548;2023-02-28T07:23:45;3.97;;;3.67;;
19566;SDS011;9930;49.240;8.548;2023-02-28T07:26:12;4.20;;;3.80;;
19566;SDS011;9930;49.240;8.548;2023-02-28T07:28:42;4.47;;;4.07;;
19566;SDS011;9930;49.240;8.548;2023-02-28T07:31:11;4.30;;;3.90;;
19566;SDS011;9930;49.240;8.548;2023-02-28T07:33:39;4.73;;;4.33;;
19566;SDS011;9930;49.240;8.548;2023-02-28T07:36:09;4.90;;;4.40;;
19566;SDS011;9930;49.240;8.548;2023-02-28T07:38:42;4.70;;;4.23;;
19566;SDS011;9930;49.240;8.548;2023-02-28T07:41:11;4.53;;;4.13;;
19566;SDS011;9930;49.240;8.548;2023-02-28T07:43:36;4.50;;;4.10;;
19566;SDS011;9930;49.240;8.548;2023-02-28T07:46:09;4.63;;;4.23;;
19566;SDS011;9930;49.240;8.548;2023-02-28T07:48:39;5.43;;;4.40;;
19566;SDS011;9930;49.240;8.548;2023-02-28T07:51:09;4.80;;;4.40;;
19566;SDS011;9930;49.240;8.548;2023-02-28T07:53:35;4.33;;;3.93;;
19566;SDS011;9930;49.240;8.548;2023-02-28T07:56:03;5.03;;;4.53;;
19566;SDS011;9930;49.240;8.548;2023-02-28T07:58:34;4.90;;;4.40;;
19566;SDS011;9930;49.240;8.548;2023-02-28T08:01:09;4.73;;;4.17;;
19566;SDS011;9930;49.240;8.548;2023-02-28T08:03:38;5.50;;;5.00;;
19566;SDS011;9930;49.240;8.548;2023-02-28T08:06:06;5.97;;;4.80;;
19566;SDS011;9930;49.240;8.548;2023-02-28T08:08:39;5.83;;;4.93;;
19566;SDS011;9930;49.240;8.548;2023-02-28T08:11:05;5.17;;;4.67;;
19566;SDS011;9930;49.240;8.548;2023-02-28T08:13:33;5.43;;;4.57;;
19566;SDS011;9930;49.240;8.548;2023-02-28T08:16:00;5.50;;;5.00;;
19566;SDS011;9930;49.240;8.548;2023-02-28T08:18:33;5.03;;;4.53;;
19566;SDS011;9930;49.240;8.548;2023-02-28T08:21:07;4.87;;;4.47;;
19566;SDS011;9930;49.240;8.548;2023-02-28T08:23:34;5.57;;;5.07;;
19566;SDS011;9930;49.240;8.548;2023-02-28T08:26:01;5.63;;;5.03;;
19566;SDS011;9930;49.240;8.548;2023-02-28T08:28:32;5.17;;;4.67;;
19566;SDS011;9930;49.240;8.548;2023-02-28T08:30:58;5.40;;;4.90;;
19566;SDS011;9930;49.240;8.548;2023-02-28T08:33:25;5.73;;;5.10;;
19566;SDS011;9930;49.240;8.548;2023-02-28T08:35:55;6.17;;;5.23;;
19566;SDS011;9930;49.240;8.548;2023-02-28T08:38:24;5.93;;;5.30;;
19566;SDS011;9930;49.240;8.548;2023-02-28T08:40:56;6.03;;;5.20;;
19566;SDS011;9930;49.240;8.548;2023-02-28T08:43:27;5.50;;;4.90;;
19566;SDS011;9930;49.240;8.548;2023-02-28T08:45:55;5.30;;;4.57;;
19566;SDS011;9930;49.240;8.548;2023-02-28T08:48:29;4.83;;;4.43;;
19566;SDS011;9930;49.240;8.548;2023-02-28T08:51:00;5.80;;;5.20;;
19566;SDS011;9930;49.240;8.548;2023-02-28T08:53:39;6.47;;;5.50;;
19566;SDS011;9930;49.240;8.548;2023-02-28T08:58:39;5.90;;;4.97;;
19566;SDS011;9930;49.240;8.548;2023-02-28T09:01:09;5.33;;;4.90;;
19566;SDS011;9930;49.240;8.548;2023-02-28T09:03:47;6.10;;;5.23;;
19566;SDS011;9930;49.240;8.548;2023-02-28T09:06:16;5.37;;;4.97;;
19566;SDS011;9930;49.240;8.548;2023-02-28T09:08:46;4.97;;;4.47;;
19566;SDS011;9930;49.240;8.548;2023-02-28T09:11:15;5.73;;;5.13;;
19566;SDS011;9930;49.240;8.548;2023-02-28T09:13:42;7.17;;;6.47;;
19566;SDS011;9930;49.240;8.548;2023-02-28T09:16:12;6.33;;;5.73;;
19566;SDS011;9930;49.240;8.548;2023-02-28T09:18:43;6.37;;;5.77;;
19566;SDS011;9930;49.240;8.548;2023-02-28T09:21:10;5.93;;;5.22;;
19566;SDS011;9930;49.240;8.548;2023-02-28T09:23:40;6.03;;;5.38;;
19566;SDS011;9930;49.240;8.548;2023-02-28T09:26:11;6.50;;;5.90;;
19566;SDS011;9930;49.240;8.548;2023-02-28T09:28:49;5.80;;;5.28;;
19566;SDS011;9930;49.240;8.548;2023-02-28T09:31:17;6.88;;;5.95;;
19566;SDS011;9930;49.240;8.548;2023-02-28T09:33:50;6.07;;;5.47;;
19566;SDS011;9930;49.240;8.548;2023-02-28T09:36:19;7.13;;;6.15;;
19566;SDS011;9930;49.240;8.548;2023-02-28T09:38:45;5.38;;;4.88;;
19566;SDS011;9930;49.240;8.548;2023-02-28T09:41:13;5.53;;;4.97;;
19566;SDS011;9930;49.240;8.548;2023-02-28T09:43:45;6.38;;;5.78;;
19566;SDS011;9930;49.240;8.548;2023-02-28T09:48:58;5.97;;;5.03;;
19566;SDS011;9930;49.240;8.548;2023-02-28T09:54:33;6.13;;;5.57;;
19566;SDS011;9930;49.240;8.548;2023-02-28T10:06:19;6.53;;;5.93;;
19566;SDS011;9930;49.240;8.548;2023-02-28T10:11:50;6.88;;;5.70;;
19566;SDS011;9930;49.240;8.548;2023-02-28T10:14:27;5.93;;;5.38;;
19566;SDS011;9930;49.240;8.548;2023-02-28T10:17:08;6.40;;;5.13;;
19566;SDS011;9930;49.240;8.548;2023-02-28T10:22:16;6.60;;;5.90;;
19566;SDS011;9930;49.240;8.548;2023-02-28T10:25:22;5.82;;;5.32;;
19566;SDS011;9930;49.240;8.548;2023-02-28T10:28:10;6.00;;;5.30;;
19566;SDS011;9930;49.240;8.548;2023-02-28T10:30:43;6.32;;;5.72;;
19566;SDS011;9930;49.240;8.548;2023-02-28T10:33:29;6.38;;;5.78;;
19566;SDS011;9930;49.240;8.548;2023-02-28T10:36:02;6.40;;;5.80;;
19566;SDS011;9930;49.240;8.548;2023-02-28T10:38:35;5.60;;;5.10;;
19566;SDS011;9930;49.240;8.548;2023-02-28T10:43:52;6.60;;;5.88;;
19566;SDS011;9930;49.240;8.548;2023-02-28T10:46:39;6.75;;;6.05;;
19566;SDS011;9930;49.240;8.548;2023-02-28T10:49:12;5.97;;;5.38;;
19566;SDS011;9930;49.240;8.548;2023-02-28T10:51:46;6.00;;;5.50;;
19566;SDS011;9930;49.240;8.548;2023-02-28T10:54:20;7.22;;;5.57;;
19566;SDS011;9930;49.240;8.548;2023-02-28T10:57:05;6.78;;;5.97;;
19566;SDS011;9930;49.240;8.548;2023-02-28T10:59:45;6.25;;;5.65;;
19566;SDS011;9930;49.240;8.548;2023-02-28T11:08:14;6.22;;;5.43;;
19566;SDS011;9930;49.240;8.548;2023-02-28T11:10:53;6.82;;;6.03;;
19566;SDS011;9930;49.240;8.548;2023-02-28T11:13:28;5.85;;;5.35;;
19566;SDS011;9930;49.240;8.548;2023-02-28T11:16:03;6.53;;;5.80;;
19566;SDS011;9930;49.240;8.548;2023-02-28T11:18:42;6.78;;;6.18;;
19566;SDS011;9930;49.240;8.548;2023-02-28T11:21:20;7.07;;;6.38;;
19566;SDS011;9930;49.240;8.548;2023-02-28T11:24:00;6.90;;;6.20;;
19566;SDS011;9930;49.240;8.548;2023-02-28T11:26:46;6.78;;;6.15;;
19566;SDS011;9930;49.240;8.548;2023-02-28T11:34:47;6.13;;;5.53;;
19566;SDS011;9930;49.240;8.548;2023-02-28T11:37:30;6.40;;;5.80;;
19566;SDS011;9930;49.240;8.548;2023-02-28T11:39:59;6.63;;;5.68;;
19566;SDS011;9930;49.240;8.548;2023-02-28T11:43:01;6.90;;;6.22;;
19566;SDS011;9930;49.240;8.548;2023-02-28T11:55:25;6.45;;;5.85;;
19566;SDS011;9930;49.240;8.548;2023-02-28T11:58:14;6.47;;;5.40;;
19566;SDS011;9930;49.240;8.548;2023-02-28T12:24:12;7.82;;;7.03;;
19566;SDS011;9930;49.240;8.548;2023-02-28T12:27:14;7.40;;;6.70;;
19566;SDS011;9930;49.240;8.548;2023-02-28T12:32:49;6.88;;;6.18;;
19566;SDS011;9930;49.240;8.548;2023-02-28T12:35:37;6.80;;;6.13;;
19566;SDS011;9930;49.240;8.548;2023-02-28T12:38:16;7.70;;;7.00;;
19566;SDS011;9930;49.240;8.548;2023-02-28T12:41:11;7.40;;;6.50;;
19566;SDS011;9930;49.240;8.548;2023-02-28T12:43:51;7.72;;;6.63;;
19566;SDS011;9930;49.240;8.548;2023-02-28T12:46:30;7.28;;;6.57;;
19566;SDS011;9930;49.240;8.548;2023-02-28T12:49:15;7.68;;;6.90;;
19566;SDS011;9930;49.240;8.548;2023-02-28T12:51:57;7.07;;;6.35;;
19566;SDS011;9930;49.240;8.548;2023-02-28T12:54:31;6.63;;;6.03;;
19566;SDS011;9930;49.240;8.548;2023-02-28T13:00:17;8.00;;;7.28;;
19566;SDS011;9930;49.240;8.548;2023-02-28T13:03:00;7.45;;;6.75;;
19566;SDS011;9930;49.240;8.548;2023-02-28T13:11:40;7.93;;;6.95;;
19566;SDS011;9930;49.240;8.548;2023-02-28T13:19:36;8.20;;;7.38;;
19566;SDS011;9930;49.240;8.548;2023-02-28T13:25:04;7.90;;;7.10;;
19566;SDS011;9930;49.240;8.548;2023-02-28T13:27:48;8.48;;;7.68;;
19566;SDS011;9930;49.240;8.548;2023-02-28T13:33:33;8.52;;;7.72;;
19566;SDS011;9930;49.240;8.548;2023-02-28T13:36:23;7.13;;;6.43;;
19566;SDS011;9930;49.240;8.548;2023-02-28T13:39:27;7.32;;;6.63;;
19566;SDS011;9930;49.240;8.548;2023-02-28T13:47:28;7.75;;;6.95;;
19566;SDS011;9930;49.240;8.548;2023-02-28T13:53:03;7.45;;;6.75;;
19566;SDS011;9930;49.240;8.548;2023-02-28T13:55:58;7.85;;;7.13;;
19566;SDS011;9930;49.240;8.548;2023-02-28T13:58:49;7.38;;;6.78;;
19566;SDS011;9930;49.240;8.548;2023-02-28T14:07:32;7.47;;;6.82;;
19566;SDS011;9930;49.240;8.548;2023-02-28T14:12:59;7.60;;;6.95;;
19566;SDS011;9930;49.240;8.548;2023-02-28T14:15:38;8.73;;;7.20;;
19566;SDS011;9930;49.240;8.548;2023-02-28T14:21:03;7.55;;;6.82;;
19566;SDS011;9930;49.240;8.548;2023-02-28T14:41:49;8.77;;;7.95;;
19566;SDS011;9930;49.240;8.548;2023-02-28T14:44:22;7.95;;;7.25;;
19566;SDS011;9930;49.240;8.548;2023-02-28T14:46:55;8.35;;;7.55;;
19566;SDS011;9930;49.240;8.548;2023-02-28T14:52:23;7.63;;;6.90;;
19566;SDS011;9930;49.240;8.548;2023-02-28T14:54:57;8.10;;;7.30;;
19566;SDS011;9930;49.240;8.548;2023-02-28T14:57:32;7.70;;;7.00;;
19566;SDS011;9930;49.240;8.548;2023-02-28T15:00:12;7.80;;;7.00;;
19566;SDS011;9930;49.240;8.548;2023-02-28T15:02:46;6.78;;;6.18;;
19566;SDS011;9930;49.240;8.548;2023-02-28T15:07:41;8.10;;;7.40;;
19566;SDS011;9930;49.240;8.548;2023-02-28T15:10:09;7.90;;;7.10;;
19566;SDS011;9930;49.240;8.548;2023-02-28T15:13:20;6.90;;;6.20;;
19566;SDS011;9930;49.240;8.548;2023-02-28T15:16:01;7.57;;;6.88;;
19566;SDS011;9930;49.240;8.548;2023-02-28T15:18:40;7.72;;;7.03;;
19566;SDS011;9930;49.240;8.548;2023-02-28T15:21:20;7.50;;;6.78;;
19566;SDS011;9930;49.240;8.548;2023-02-28T15:23:54;7.30;;;6.53;;
19566;SDS011;9930;49.240;8.548;2023-02-28T15:26:27;7.45;;;6.75;;
19566;SDS011;9930;49.240;8.548;2023-02-28T15:29:00;7.50;;;6.85;;
19566;SDS011;9930;49.240;8.548;2023-02-28T15:31:39;7.63;;;6.93;;
19566;SDS011;9930;49.240;8.548;2023-02-28T15:34:20;7.97;;;7.28;;
19566;SDS011;9930;49.240;8.548;2023-02-28T15:36:53;7.50;;;6.47;;
19566;SDS011;9930;49.240;8.548;2023-02-28T15:39:23;7.80;;;7.00;;
19566;SDS011;9930;49.240;8.548;2023-02-28T15:42:09;7.40;;;6.70;;
19566;SDS011;9930;49.240;8.548;2023-02-28T15:44:44;7.88;;;6.93;;
19566;SDS011;9930;49.240;8.548;2023-02-28T15:47:23;7.95;;;7.15;;
19566;SDS011;9930;49.240;8.548;2023-02-28T15:50:02;7.43;;;6.72;;
19566;SDS011;9930;49.240;8.548;2023-02-28T15:52:41;7.68;;;6.97;;
19566;SDS011;9930;49.240;8.548;2023-02-28T15:55:11;7.82;;;7.13;;
19566;SDS011;9930;49.240;8.548;2023-02-28T15:58:00;6.82;;;6.22;;
19566;SDS011;9930;49.240;8.548;2023-02-28T16:00:30;6.63;;;6.03;;
19566;SDS011;9930;49.240;8.548;2023-02-28T16:03:22;7.35;;;6.65;;
19566;SDS011;9930;49.240;8.548;2023-02-28T16:09:08;7.97;;;7.20;;
19566;SDS011;9930;49.240;8.548;2023-02-28T16:11:47;9.23;;;8.32;;
19566;SDS011;9930;49.240;8.548;2023-02-28T16:14:27;7.95;;;7.15;;
19566;SDS011;9930;49.240;8.548;2023-02-28T16:17:02;6.53;;;5.90;;
19566;SDS011;9930;49.240;8.548;2023-02-28T16:19:35;7.13;;;6.53;;
19566;SDS011;9930;49.240;8.548;2023-02-28T16:22:01;6.90;;;6.30;;
19566;SDS011;9930;49.240;8.548;2023-02-28T16:24:30;7.43;;;6.72;;
19566;SDS011;9930;49.240;8.548;2023-02-28T16:26:56;7.95;;;7.15;;
19566;SDS011;9930;49.240;8.548;2023-02-28T16:29:26;7.05;;;6.45;;
19566;SDS011;9930;49.240;8.548;2023-02-28T16:32:04;6.97;;;6.32;;
19566;SDS011;9930;49.240;8.548;2023-02-28T16:34:33;8.07;;;7.28;;
19566;SDS011;9930;49.240;8.548;2023-02-28T16:37:04;7.72;;;6.93;;
19566;SDS011;9930;49.240;8.548;2023-02-28T16:39:39;7.85;;;7.05;;
19566;SDS011;9930;49.240;8.548;2023-02-28T16:42:06;8.10;;;7.40;;
19566;SDS011;9930;49.240;8.548;2023-02-28T16:44:40;8.55;;;7.75;;
19566;SDS011;9930;49.240;8.548;2023-02-28T16:47:08;8.80;;;7.90;;
19566;SDS011;9930;49.240;8.548;2023-02-28T16:49:36;7.82;;;7.03;;
19566;SDS011;9930;49.240;8.548;2023-02-28T16:52:03;8.98;;;8.07;;
19566;SDS011;9930;49.240;8.548;2023-02-28T16:54:32;8.45;;;7.65;;
19566;SDS011;9930;49.240;8.548;2023-02-28T16:56:58;8.33;;;7.50;;
19566;SDS011;9930;49.240;8.548;2023-02-28T16:59:27;7.55;;;6.88;;
19566;SDS011;9930;49.240;8.548;2023-02-28T17:01:55;7.88;;;7.18;;
19566;SDS011;9930;49.240;8.548;2023-02-28T17:04:25;7.78;;;6.70;;
19566;SDS011;9930;49.240;8.548;2023-02-28T17:06:51;8.73;;;7.38;;
19566;SDS011;9930;49.240;8.548;2023-02-28T17:09:20;7.45;;;6.72;;
19566;SDS011;9930;49.240;8.548;2023-02-28T17:11:50;7.18;;;6.47;;
19566;SDS011;9930;49.240;8.548;2023-02-28T17:14:15;7.03;;;5.95;;
19566;SDS011;9930;49.240;8.548;2023-02-28T17:16:41;7.57;;;6.57;;
19566;SDS011;9930;49.240;8.548;2023-02-28T17:19:16;8.00;;;7.20;;
19566;SDS011;9930;49.240;8.548;2023-02-28T17:21:45;6.83;;;6.13;;
19566;SDS011;9930;49.240;8.548;2023-02-28T17:24:19;6.82;;;6.13;;
19566;SDS011;9930;49.240;8.548;2023-02-28T17:26:53;6.60;;;5.93;;
19566;SDS011;9930;49.240;8.548;2023-02-28T17:29:21;7.45;;;6.18;;
19566;SDS011;9930;49.240;8.548;2023-02-28T17:31:47;6.78;;;6.18;;
19566;SDS011;9930;49.240;8.548;2023-02-28T17:34:13;7.15;;;6.38;;
19566;SDS011;9930;49.240;8.548;2023-02-28T17:36:43;7.70;;;6.90;;
19566;SDS011;9930;49.240;8.548;2023-02-28T17:39:12;6.30;;;5.70;;
19566;SDS011;9930;49.240;8.548;2023-02-28T17:41:42;6.47;;;5.87;;
19566;SDS011;9930;49.240;8.548;2023-02-28T17:44:10;6.90;;;6.20;;
19566;SDS011;9930;49.240;8.548;2023-02-28T17:46:38;6.57;;;5.97;;
19566;SDS011;9930;49.240;8.548;2023-02-28T17:49:08;6.77;;;6.10;;
19566;SDS011;9930;49.240;8.548;2023-02-28T17:51:34;6.53;;;5.93;;
19566;SDS011;9930;49.240;8.548;2023-02-28T17:54:03;6.80;;;5.83;;
19566;SDS011;9930;49.240;8.548;2023-02-28T17:56:30;6.57;;;5.70;;
19566;SDS011;9930;49.240;8.548;2023-02-28T17:58:59;7.28;;;6.57;;
19566;SDS011;9930;49.240;8.548;2023-02-28T18:01:27;7.93;;;7.13;;
19566;SDS011;9930;49.240;8.548;2023-02-28T18:03:55;9.18;;;8.25;;
19566;SDS011;9930;49.240;8.548;2023-02-28T18:06:44;10.63;;;9.73;;
19566;SDS011;9930;49.240;8.548;2023-02-28T18:09:18;8.57;;;7.77;;
19566;SDS011;9930;49.240;8.548;2023-02-28T18:11:50;7.70;;;7.00;;
19566;SDS011;9930;49.240;8.548;2023-02-28T18:14:21;7.33;;;6.63;;
19566;SDS011;9930;49.240;8.548;2023-02-28T18:16:50;7.37;;;6.67;;
19566;SDS011;9930;49.240;8.548;2023-02-28T18:19:22;7.45;;;6.65;;
19566;SDS011;9930;49.240;8.548;2023-02-28T18:21:50;9.87;;;7.80;;
19566;SDS011;9930;49.240;8.548;2023-02-28T18:24:18;8.33;;;7.47;;
19566;SDS011;9930;49.240;8.548;2023-02-28T18:26:48;7.95;;;7.13;;
19566;SDS011;9930;49.240;8.548;2023-02-28T18:29:19;7.97;;;6.93;;
19566;SDS011;9930;49.240;8.548;2023-02-28T18:31:48;9.30;;;7.13;;
19566;SDS011;9930;49.240;8.548;2023-02-28T18:34:15;8.10;;;7.30;;
19566;SDS011;9930;49.240;8.548;2023-02-28T18:36:44;7.83;;;7.03;;
19566;SDS011;9930;49.240;8.548;2023-02-28T18:39:14;8.37;;;7.47;;
19566;SDS011;9930;49.240;8.548;2023-02-28T18:41:44;6.97;;;6.33;;